< < Back
Terminal Aerodrome Forecast


Current Version              Previous Versions:   1  2  3  4  5  6  7  8  9  

Terminal Aerodrome Forecast

548
FTUS42 KTAE 261720
TAFTLH
TAF
KTLH 261720Z 2618/2718 07010KT P6SM SCT050
     FM270000 07005KT P6SM FEW250=



Latest METAR

284
SAUS80 KWBC 271500 CCA
MTRTLH
METAR KTLH 271453Z 10009KT 10SM FEW030 FEW250 29/21 A3004 RMK AO2 SLP170
T02940206 51007


USA.gov is the U.S. government's official web portal to all federal, state and local government web resources and services.